Time;durP1;ratioP1;P1;durP2;ratioP2;P2;SDS_P1;SDS_P2;PMS_P1;PMS_P2;Temp;Humidity;BMP_temperature;BMP_pressure;BME280_temperature;BME280_humidity;BME280_pressure;Samples;Min_cycle;Max_cycle;Signal;HPM_P1;HPM_P2
2023/05/31 00:02:36;;;;;;;10.90;6.10;;;11.80;99.90;;;;;;10070900;29;20486;-80
2023/05/31 00:07:58;;;;;;;8.60;5.22;;;11.90;1.00;;;;;;10079316;29;20221;-80
2023/05/31 00:13:19;;;;;;;12.30;6.47;;;11.80;99.90;;;;;;10034114;29;20404;-81
2023/05/31 00:18:41;;;;;;;13.10;6.88;;;11.70;99.90;;;;;;10006227;29;20236;-80
2023/05/31 00:24:02;;;;;;;13.90;7.10;;;11.60;99.90;;;;;;10025350;29;20564;-80
2023/05/31 00:29:25;;;;;;;11.18;6.80;;;11.40;99.90;;;;;;10079783;29;20212;-81
2023/05/31 00:34:47;;;;;;;10.60;5.65;;;11.50;1.00;;;;;;10047318;29;20246;-80
2023/05/31 00:40:08;;;;;;;12.00;5.25;;;11.50;1.00;;;;;;10065776;29;20234;-80
2023/05/31 00:45:29;;;;;;;10.30;4.88;;;11.50;1.00;;;;;;10038735;29;20286;-80
2023/05/31 00:50:51;;;;;;;8.70;5.30;;;11.40;1.00;;;;;;10003712;29;20218;-81
2023/05/31 00:56:13;;;;;;;12.02;4.93;;;11.30;1.00;;;;;;10056746;29;20233;-81
2023/05/31 01:01:34;;;;;;;12.18;6.43;;;11.10;1.00;;;;;;10079032;29;20225;-81
2023/05/31 01:07:00;;;;;;;9.97;6.37;;;11.00;1.00;;;;;;10056722;29;20261;-80
2023/05/31 01:12:57;;;;;;;10.50;6.60;;;10.90;1.00;;;;;;10067961;29;20207;-79
2023/05/31 01:18:44;;;;;;;9.48;5.97;;;10.90;1.00;;;;;;9990643;29;20241;-80
2023/05/31 01:29:28;;;;;;;13.63;6.35;;;10.70;1.00;;;;;;10086440;29;20210;-81
2023/05/31 01:34:50;;;;;;;11.87;6.33;;;10.60;42.50;;;;;;10085817;29;20342;-80
2023/05/31 01:40:13;;;;;;;12.87;6.77;;;10.60;99.90;;;;;;10018782;29;20429;-80
2023/05/31 01:45:35;;;;;;;17.40;8.55;;;10.70;99.90;;;;;;9998659;29;20229;-81
2023/05/31 01:50:59;;;;;;;12.37;7.17;;;10.50;99.90;;;;;;10037589;29;20218;-81
2023/05/31 01:56:21;;;;;;;11.47;6.93;;;10.40;99.90;;;;;;10044130;29;20200;-80
2023/05/31 02:01:44;;;;;;;15.97;6.97;;;10.40;99.90;;;;;;10066279;29;20231;-81
2023/05/31 02:07:05;;;;;;;8.53;5.17;;;10.30;99.90;;;;;;10052425;29;20397;-81
2023/05/31 02:12:26;;;;;;;11.63;5.97;;;10.30;99.90;;;;;;10069739;29;20219;-80
2023/05/31 02:17:51;;;;;;;10.17;5.80;;;10.20;99.90;;;;;;10038865;29;20250;-81
2023/05/31 02:23:12;;;;;;;8.53;5.23;;;10.30;99.90;;;;;;10067810;29;20407;-80
2023/05/31 02:28:34;;;;;;;9.90;5.50;;;10.20;99.90;;;;;;10061594;29;20211;-80
2023/05/31 02:33:56;;;;;;;9.87;5.47;;;10.20;99.90;;;;;;10070780;29;20202;-80
2023/05/31 02:39:20;;;;;;;10.40;5.90;;;10.10;99.90;;;;;;10071695;29;20228;-81
2023/05/31 02:44:41;;;;;;;9.13;5.43;;;10.10;99.90;;;;;;10064733;29;20262;-80
2023/05/31 02:50:08;;;;;;;10.30;5.53;;;10.10;99.90;;;;;;10031089;29;20214;-80
2023/05/31 02:55:37;;;;;;;8.47;5.27;;;10.00;99.90;;;;;;10031565;29;20502;-80
2023/05/31 03:01:17;;;;;;;10.13;5.50;;;10.00;99.90;;;;;;10043579;29;20265;-81
2023/05/31 03:07:01;;;;;;;9.33;5.33;;;9.90;99.90;;;;;;10044540;29;20225;-81
2023/05/31 03:12:23;;;;;;;13.07;5.17;;;9.80;99.90;;;;;;10041064;29;20259;-81
2023/05/31 03:17:46;;;;;;;13.90;5.00;;;9.90;99.90;;;;;;9993285;29;20340;-81
2023/05/31 03:23:08;;;;;;;12.33;5.80;;;9.90;99.90;;;;;;9993257;29;20211;-81
2023/05/31 03:28:30;;;;;;;9.73;5.23;;;9.90;99.90;;;;;;10060274;29;20209;-80
2023/05/31 03:33:51;;;;;;;8.90;4.73;;;10.00;99.90;;;;;;10067697;29;20253;-79
2023/05/31 03:39:13;;;;;;;9.40;5.67;;;10.00;99.90;;;;;;10074620;29;20449;-80
2023/05/31 03:44:34;;;;;;;11.33;5.57;;;10.10;99.90;;;;;;10021210;29;20203;-80
2023/05/31 03:49:55;;;;;;;9.50;5.77;;;10.30;99.90;;;;;;10024379;29;20521;-80
2023/05/31 03:55:17;;;;;;;10.13;5.73;;;10.30;99.90;;;;;;10012029;29;20234;-79
2023/05/31 04:00:38;;;;;;;11.07;5.93;;;10.50;99.90;;;;;;10012129;29;20230;-80
2023/05/31 04:06:00;;;;;;;12.13;6.57;;;10.60;99.90;;;;;;10036266;29;20208;-80
2023/05/31 04:11:22;;;;;;;12.23;6.27;;;10.80;99.90;;;;;;9995688;29;20269;-80
2023/05/31 04:16:44;;;;;;;14.50;6.93;;;10.90;99.90;;;;;;9978230;29;20298;-80
2023/05/31 04:22:07;;;;;;;9.40;5.03;;;11.10;1.00;;;;;;10006897;29;20239;-80
2023/05/31 04:27:30;;;;;;;7.28;3.10;;;11.40;4.60;;;;;;10010449;29;20206;-81
2023/05/31 04:32:56;;;;;;;6.00;3.28;;;11.70;99.90;;;;;;10028570;29;20198;-79
2023/05/31 04:38:18;;;;;;;3.70;2.47;;;11.90;99.90;;;;;;10058526;29;20245;-81
2023/05/31 04:43:42;;;;;;;5.15;2.67;;;12.10;99.90;;;;;;10016277;29;20406;-80
2023/05/31 04:49:04;;;;;;;3.97;2.35;;;12.30;1.00;;;;;;10015379;29;20305;-80
2023/05/31 04:54:25;;;;;;;8.75;2.78;;;12.50;99.90;;;;;;10026309;29;20492;-81
2023/05/31 04:59:47;;;;;;;6.70;3.20;;;12.50;91.30;;;;;;10049767;29;20241;-80
2023/05/31 05:05:09;;;;;;;5.20;2.70;;;12.60;1.00;;;;;;10011792;29;20203;-80
2023/05/31 05:10:30;;;;;;;6.70;3.10;;;12.70;99.90;;;;;;10002696;29;20281;-81
2023/05/31 05:15:52;;;;;;;6.30;2.88;;;12.70;90.50;;;;;;9992363;29;20231;-80
2023/05/31 05:21:14;;;;;;;5.80;2.58;;;12.70;1.00;;;;;;10039476;29;20483;-80
2023/05/31 05:26:37;;;;;;;6.53;2.83;;;12.90;1.00;;;;;;10039637;29;20222;-81
2023/05/31 05:31:59;;;;;;;5.95;2.72;;;13.10;1.00;;;;;;10011832;29;20217;-81
2023/05/31 05:37:21;;;;;;;8.50;3.00;;;13.30;1.00;;;;;;10001739;29;20256;-80
2023/05/31 05:42:42;;;;;;;4.75;2.72;;;13.40;1.00;;;;;;9988419;29;20285;-81
2023/05/31 05:48:04;;;;;;;6.65;2.60;;;13.60;99.90;;;;;;10009766;29;20213;-80
2023/05/31 05:53:27;;;;;;;7.28;2.50;;;13.80;99.90;;;;;;10039174;29;20204;-81
2023/05/31 05:58:50;;;;;;;3.65;1.67;;;14.10;99.90;;;;;;10025386;29;20237;-81
2023/05/31 06:04:32;;;;;;;6.55;2.22;;;14.40;99.90;;;;;;10004814;29;20213;-80
2023/05/31 06:09:56;;;;;;;4.40;2.10;;;14.60;99.90;;;;;;10033296;29;20286;-81
2023/05/31 06:15:18;;;;;;;3.25;1.55;;;14.90;99.90;;;;;;10007181;29;20209;-81
2023/05/31 06:20:41;;;;;;;3.75;1.70;;;15.30;1.00;;;;;;9995012;29;20312;-80
2023/05/31 06:26:03;;;;;;;4.72;1.70;;;;;;;;;;10009328;29;20212;-82
2023/05/31 06:31:24;;;;;;;2.53;1.40;;;16.50;1.00;;;;;;9997087;29;20289;-80
2023/05/31 06:36:47;;;;;;;1.73;1.15;;;;;;;;;;9994037;29;20258;-81
2023/05/31 06:42:09;;;;;;;3.50;1.50;;;;;;;;;;10005256;29;20280;-80
2023/05/31 06:47:30;;;;;;;4.10;1.27;;;17.60;1.00;;;;;;10019570;29;20565;-81
2023/05/31 06:53:09;;;;;;;2.75;1.73;;;18.40;99.90;;;;;;10006126;29;20248;-79
2023/05/31 06:58:35;;;;;;;3.20;1.17;;;19.00;99.90;;;;;;9984596;29;20240;-78
2023/05/31 07:03:58;;;;;;;3.58;1.48;;;19.60;99.90;;;;;;9993351;29;20209;-79
2023/05/31 07:09:20;;;;;;;3.20;1.00;;;;;;;;;;9987432;29;20246;-85
2023/05/31 07:14:47;;;;;;;7.22;1.23;;;20.60;99.90;;;;;;10018808;29;20445;-86
2023/05/31 07:20:10;;;;;;;3.42;1.17;;;20.90;99.90;;;;;;10031531;29;20234;-84
2023/05/31 07:25:31;;;;;;;3.03;1.38;;;21.10;99.90;;;;;;10018879;29;20205;-83
2023/05/31 07:30:53;;;;;;;2.88;1.27;;;21.30;99.90;;;;;;10045547;29;20202;-80
2023/05/31 07:36:14;;;;;;;3.67;1.08;;;21.50;99.90;;;;;;9991250;29;20501;-81
2023/05/31 07:41:35;;;;;;;3.85;1.20;;;21.70;99.90;;;;;;10004766;29;20300;-85
2023/05/31 07:46:57;;;;;;;3.42;1.35;;;;;;;;;;10011497;29;20497;-80
2023/05/31 07:52:21;;;;;;;2.42;1.15;;;22.40;99.90;;;;;;10006374;29;20211;-80
2023/05/31 07:57:43;;;;;;;6.32;1.42;;;22.70;99.90;;;;;;10018038;29;20207;-81
2023/05/31 08:03:05;;;;;;;9.00;3.63;;;22.60;99.90;;;;;;10032612;29;20230;-79
2023/05/31 08:08:27;;;;;;;6.75;1.60;;;22.80;99.90;;;;;;10020142;29;20230;-80
2023/05/31 08:13:48;;;;;;;18.58;1.50;;;23.00;99.90;;;;;;10021246;29;20266;-78
2023/05/31 08:19:09;;;;;;;10.32;1.45;;;23.40;1.00;;;;;;10011257;29;20237;-81
2023/05/31 08:24:30;;;;;;;1.88;0.95;;;23.60;1.00;;;;;;10012807;29;20299;-84
2023/05/31 08:29:51;;;;;;;22.45;1.70;;;23.60;1.00;;;;;;10027517;29;20199;-81
2023/05/31 08:35:13;;;;;;;5.00;1.25;;;24.00;99.90;;;;;;10036061;29;20534;-80
2023/05/31 08:40:34;;;;;;;3.67;1.10;;;24.30;99.90;;;;;;10025224;29;20549;-82
2023/05/31 08:45:55;;;;;;;3.28;0.93;;;24.10;99.90;;;;;;10021778;29;20203;-79
2023/05/31 08:51:18;;;;;;;13.60;1.85;;;24.20;99.90;;;;;;10012229;29;20208;-81
2023/05/31 08:56:40;;;;;;;4.22;1.27;;;24.20;99.90;;;;;;10019239;29;20217;-82
2023/05/31 09:02:04;;;;;;;5.25;1.45;;;24.10;99.90;;;;;;10074765;29;20253;-81
2023/05/31 09:07:25;;;;;;;1.85;1.08;;;24.00;99.90;;;;;;10060939;29;20245;-80
2023/05/31 09:12:47;;;;;;;20.75;2.28;;;24.30;99.90;;;;;;9983546;29;20242;-80
2023/05/31 09:18:18;;;;;;;3.05;1.33;;;24.40;99.90;;;;;;10030958;29;20473;-80
2023/05/31 09:24:07;;;;;;;2.50;1.25;;;24.00;99.90;;;;;;9983917;29;20207;-80
2023/05/31 09:29:28;;;;;;;2.30;1.10;;;25.00;99.90;;;;;;10024798;29;20217;-81
2023/05/31 09:34:49;;;;;;;3.58;1.60;;;26.00;99.90;;;;;;10022444;29;20247;-84
2023/05/31 09:40:31;;;;;;;3.58;1.45;;;26.70;99.90;;;;;;10022930;29;20322;-88
2023/05/31 09:45:52;;;;;;;1.80;1.20;;;26.70;99.90;;;;;;10037609;29;20237;-79
2023/05/31 09:51:14;;;;;;;3.40;1.10;;;25.90;99.90;;;;;;10023421;29;20218;-79
2023/05/31 09:56:41;;;;;;;3.13;1.77;;;25.80;99.90;;;;;;10054828;29;20521;-84
2023/05/31 10:02:02;;;;;;;2.95;1.50;;;26.00;99.90;;;;;;10011111;29;20254;-81
2023/05/31 10:07:26;;;;;;;2.00;0.93;;;25.70;99.90;;;;;;10060849;29;20407;-81
2023/05/31 10:12:53;;;;;;;4.32;1.48;;;25.90;99.90;;;;;;10031681;29;20203;-85
2023/05/31 10:18:17;;;;;;;4.03;1.40;;;25.40;99.90;;;;;;10027664;29;20402;-82
2023/05/31 10:24:02;;;;;;;5.45;2.70;;;25.50;99.90;;;;;;10024769;29;20573;-83
2023/05/31 10:29:26;;;;;;;1.58;1.00;;;25.90;99.90;;;;;;10027922;29;20202;-83
2023/05/31 10:34:48;;;;;;;5.97;1.27;;;26.20;99.90;;;;;;10036009;29;20255;-82
2023/05/31 10:40:19;;;;;;;3.38;1.38;;;26.60;99.90;;;;;;10027533;29;20241;-82
2023/05/31 10:46:00;;;;;;;4.82;1.33;;;26.80;99.90;;;;;;10000070;29;20231;-81
2023/05/31 10:51:44;;;;;;;2.22;1.10;;;26.90;99.90;;;;;;9978915;29;20208;-83
2023/05/31 10:57:05;;;;;;;7.43;1.30;;;27.00;99.90;;;;;;10018452;29;20197;-83
2023/05/31 11:02:27;;;;;;;4.00;1.17;;;27.00;99.90;;;;;;10022024;29;20548;-82
2023/05/31 11:07:52;;;;;;;2.17;1.23;;;27.00;99.90;;;;;;10045542;29;20214;-82
2023/05/31 11:13:14;;;;;;;2.17;1.00;;;27.00;99.90;;;;;;10011629;29;20250;-82
2023/05/31 11:18:42;;;;;;;5.22;1.08;;;27.40;99.90;;;;;;10007119;29;20208;-83
2023/05/31 11:24:06;;;;;;;1.60;1.20;;;27.70;99.90;;;;;;10027250;29;20590;-90
2023/05/31 11:29:53;;;;;;;2.97;1.65;;;27.40;99.90;;;;;;10024206;29;20231;-84
2023/05/31 11:35:16;;;;;;;1.98;0.98;;;27.30;99.90;;;;;;10011425;29;20595;-86
2023/05/31 11:40:37;;;;;;;6.15;1.23;;;27.10;99.90;;;;;;10001218;29;20315;-81
2023/05/31 11:46:02;;;;;;;2.22;1.23;;;27.20;99.90;;;;;;9987611;29;20379;-84
2023/05/31 11:51:23;;;;;;;3.58;1.25;;;27.10;99.90;;;;;;9977055;29;20212;-81
2023/05/31 11:56:44;;;;;;;7.80;1.30;;;27.40;99.90;;;;;;10001276;29;20393;-81
2023/05/31 12:02:24;;;;;;;1.17;0.90;;;27.20;99.90;;;;;;10023527;29;20267;-80
2023/05/31 12:08:09;;;;;;;3.45;1.90;;;27.30;99.90;;;;;;10029753;29;20417;-80
2023/05/31 12:13:32;;;;;;;4.50;1.40;;;27.40;99.90;;;;;;10001148;29;20235;-79
2023/05/31 12:18:54;;;;;;;11.50;1.60;;;27.30;99.90;;;;;;10020824;29;20199;-81
2023/05/31 12:24:17;;;;;;;3.97;1.52;;;27.20;99.90;;;;;;9997702;29;20238;-80
2023/05/31 12:29:39;;;;;;;1.85;1.50;;;27.30;99.90;;;;;;10020360;29;20377;-81
2023/05/31 12:35:08;;;;;;;10.70;1.38;;;27.50;99.90;;;;;;10020347;29;20234;-88
2023/05/31 12:40:38;;;;;;;11.57;2.08;;;27.50;99.90;;;;;;9985105;29;20250;-80
2023/05/31 12:46:00;;;;;;;2.88;1.20;;;27.80;99.90;;;;;;10019848;29;20219;-79
2023/05/31 12:51:22;;;;;;;2.45;1.30;;;27.60;99.90;;;;;;10003061;29;20528;-79
2023/05/31 12:56:53;;;;;;;3.25;1.05;;;27.60;99.90;;;;;;9993396;29;20238;-80
2023/05/31 13:02:58;;;;;;;2.67;1.17;;;27.50;99.90;;;;;;10014416;29;20242;-81
2023/05/31 13:19:38;;;;;;;12.73;1.85;;;26.70;99.90;;;;;;9661487;23;20247;-79
2023/05/31 13:25:01;;;;;;;7.75;1.38;;;26.80;99.90;;;;;;10060490;29;20622;-80
2023/05/31 13:30:22;;;;;;;12.23;2.13;;;26.90;99.90;;;;;;10073036;29;20206;-80
2023/05/31 13:35:44;;;;;;;34.58;3.22;;;26.80;99.90;;;;;;10085196;29;20206;-79
2023/05/31 13:41:33;;;;;;;5.80;1.73;;;26.80;99.90;;;;;;10076176;29;20253;-83
2023/05/31 13:46:54;;;;;;;14.30;2.03;;;26.70;99.90;;;;;;10085523;29;20198;-81
2023/05/31 13:52:16;;;;;;;4.63;1.45;;;26.80;99.90;;;;;;10073767;29;20218;-78
2023/05/31 13:57:39;;;;;;;5.85;1.42;;;26.80;99.90;;;;;;10083568;29;20194;-79
2023/05/31 14:03:00;;;;;;;5.93;1.83;;;26.70;99.90;;;;;;10081004;29;20242;-79
2023/05/31 14:08:22;;;;;;;5.60;1.48;;;26.70;99.90;;;;;;10080111;29;20282;-80
2023/05/31 14:13:43;;;;;;;2.08;1.10;;;26.60;99.90;;;;;;10077501;29;20214;-80
2023/05/31 14:19:05;;;;;;;5.47;1.83;;;26.40;99.90;;;;;;10068135;29;20297;-81
2023/05/31 14:24:26;;;;;;;2.65;1.60;;;26.20;99.90;;;;;;10068224;29;20391;-83
2023/05/31 14:29:49;;;;;;;10.95;1.50;;;26.10;99.90;;;;;;10042600;29;20535;-82
2023/05/31 14:35:11;;;;;;;72.50;6.70;;;26.10;99.90;;;;;;10041352;29;20203;-83
2023/05/31 14:40:32;;;;;;;3.35;1.50;;;25.90;99.90;;;;;;10050844;29;20275;-84
2023/05/31 14:45:54;;;;;;;6.22;1.02;;;25.70;99.90;;;;;;10053354;29;20202;-85
2023/05/31 14:51:15;;;;;;;23.10;2.20;;;25.70;99.90;;;;;;10075522;29;20206;-80
2023/05/31 14:56:39;;;;;;;4.80;2.17;;;25.40;99.90;;;;;;10054927;29;20209;-81
2023/05/31 15:02:01;;;;;;;9.20;1.65;;;25.40;99.90;;;;;;10052436;29;20406;-84
2023/05/31 15:07:22;;;;;;;18.95;2.38;;;25.60;99.90;;;;;;10059140;29;20626;-82
2023/05/31 15:12:46;;;;;;;1.80;1.02;;;25.50;99.90;;;;;;10096548;29;20205;-82
2023/05/31 15:18:11;;;;;;;6.40;1.75;;;25.40;99.90;;;;;;10074574;29;20207;-80
2023/05/31 15:23:32;;;;;;;2.22;1.48;;;25.20;99.90;;;;;;10061860;29;20257;-81
2023/05/31 15:28:54;;;;;;;2.55;1.25;;;25.00;99.90;;;;;;10068656;29;20266;-81
2023/05/31 15:34:15;;;;;;;3.88;1.30;;;24.90;99.90;;;;;;10077203;29;20285;-80
2023/05/31 15:39:36;;;;;;;4.75;1.65;;;24.90;99.90;;;;;;10081340;29;20214;-80
2023/05/31 15:44:58;;;;;;;3.42;1.58;;;24.80;99.90;;;;;;10062388;29;20211;-81
2023/05/31 15:50:19;;;;;;;1.75;1.02;;;24.80;99.90;;;;;;10040516;29;20200;-80
2023/05/31 15:55:46;;;;;;;3.45;1.58;;;24.80;99.90;;;;;;10037043;29;20221;-81
2023/05/31 16:01:07;;;;;;;20.27;2.47;;;24.60;99.90;;;;;;10027647;29;20232;-81
2023/05/31 16:06:29;;;;;;;1.80;1.13;;;24.50;99.90;;;;;;10039767;29;20324;-80
2023/05/31 16:11:50;;;;;;;5.05;1.17;;;24.30;99.90;;;;;;10043982;29;20199;-80
2023/05/31 16:17:12;;;;;;;3.42;1.80;;;24.30;99.90;;;;;;10033221;29;20235;-80
2023/05/31 16:22:34;;;;;;;39.10;3.50;;;24.20;99.90;;;;;;10075497;29;20443;-80
2023/05/31 16:27:55;;;;;;;2.25;1.55;;;24.00;99.90;;;;;;10066727;29;20201;-81
2023/05/31 16:33:16;;;;;;;1.85;0.90;;;23.90;99.90;;;;;;10061193;29;20216;-80
2023/05/31 16:38:37;;;;;;;2.95;1.58;;;23.90;99.90;;;;;;10079858;29;20190;-80
2023/05/31 16:43:59;;;;;;;2.75;1.40;;;23.90;99.90;;;;;;10050735;29;20275;-81
2023/05/31 16:49:20;;;;;;;2.78;1.20;;;23.80;99.90;;;;;;10018524;29;20205;-80
2023/05/31 16:54:42;;;;;;;3.25;1.77;;;23.70;99.90;;;;;;10063391;29;20210;-81
2023/05/31 17:00:04;;;;;;;3.08;1.38;;;23.60;99.90;;;;;;10014918;29;20285;-81
2023/05/31 17:05:25;;;;;;;29.23;2.92;;;23.60;99.90;;;;;;10043659;29;20217;-81
2023/05/31 17:10:47;;;;;;;5.05;1.63;;;23.50;99.90;;;;;;10040459;29;20249;-80
2023/05/31 17:16:09;;;;;;;6.13;1.40;;;23.30;99.90;;;;;;10043298;29;20217;-80
2023/05/31 17:21:32;;;;;;;4.63;1.45;;;23.20;99.90;;;;;;10040900;29;20587;-80
2023/05/31 17:26:54;;;;;;;2.15;1.60;;;23.10;99.90;;;;;;10027199;29;20222;-80
2023/05/31 17:32:17;;;;;;;3.40;1.65;;;22.90;99.90;;;;;;10045351;29;20217;-80
2023/05/31 17:37:38;;;;;;;5.88;1.40;;;22.70;99.90;;;;;;10040083;29;20221;-81
2023/05/31 17:43:00;;;;;;;2.78;1.70;;;;;;;;;;10034099;29;20254;-81
2023/05/31 17:48:21;;;;;;;2.45;1.50;;;22.30;99.90;;;;;;10040705;29;20501;-81
2023/05/31 17:53:42;;;;;;;2.30;1.35;;;22.20;99.90;;;;;;10055521;29;20447;-80
2023/05/31 17:59:03;;;;;;;3.13;1.30;;;22.00;99.90;;;;;;10077653;29;20251;-80
2023/05/31 18:04:25;;;;;;;6.38;1.50;;;21.80;99.90;;;;;;10028979;29;20235;-80
2023/05/31 18:09:46;;;;;;;4.10;1.33;;;21.60;99.90;;;;;;10046720;29;20195;-81
2023/05/31 18:15:08;;;;;;;5.32;1.30;;;21.50;99.90;;;;;;10036359;29;20207;-81
2023/05/31 18:20:29;;;;;;;3.08;1.15;;;21.30;99.90;;;;;;10051888;29;20249;-80
2023/05/31 18:25:53;;;;;;;3.65;1.38;;;;;;;;;;10046609;29;20195;-81
2023/05/31 18:31:14;;;;;;;1.33;1.17;;;20.80;99.90;;;;;;10055172;29;20217;-80
2023/05/31 18:36:35;;;;;;;2.38;1.33;;;20.80;99.90;;;;;;10046182;29;20266;-80
2023/05/31 18:41:57;;;;;;;1.50;1.13;;;20.50;99.90;;;;;;10036357;29;20225;-79
2023/05/31 18:47:18;;;;;;;4.00;1.17;;;20.50;99.90;;;;;;10039185;29;20260;-80
2023/05/31 18:52:39;;;;;;;1.58;1.00;;;20.20;99.90;;;;;;10039935;29;20209;-80
2023/05/31 18:58:00;;;;;;;3.47;1.35;;;20.10;99.90;;;;;;10070294;29;20428;-80
2023/05/31 19:03:22;;;;;;;2.75;1.38;;;19.80;99.90;;;;;;10035456;29;20567;-81
2023/05/31 19:08:43;;;;;;;3.47;0.90;;;19.80;99.90;;;;;;10057961;29;20267;-80
2023/05/31 19:14:05;;;;;;;2.22;0.93;;;19.70;99.90;;;;;;10043707;29;20286;-80
2023/05/31 19:19:26;;;;;;;2.88;1.58;;;19.60;99.90;;;;;;10031651;29;20199;-81
2023/05/31 19:24:47;;;;;;;2.30;1.25;;;19.40;99.90;;;;;;10047146;29;20356;-80
2023/05/31 19:30:08;;;;;;;2.55;0.90;;;19.30;99.90;;;;;;10032177;29;20439;-80
2023/05/31 19:35:30;;;;;;;2.42;1.25;;;19.10;99.90;;;;;;10031207;29;20394;-80
2023/05/31 19:40:51;;;;;;;1.90;1.13;;;19.00;99.90;;;;;;10033590;29;20235;-79
2023/05/31 19:46:20;;;;;;;9.65;1.58;;;18.90;99.90;;;;;;10044062;29;20391;-80
2023/05/31 19:51:41;;;;;;;3.83;1.55;;;18.70;99.90;;;;;;10059245;29;20362;-81
2023/05/31 19:57:03;;;;;;;2.28;1.55;;;18.60;99.90;;;;;;10080895;29;20254;-80
2023/05/31 20:02:25;;;;;;;2.58;1.15;;;;;;;;;;10076308;29;20238;-80
2023/05/31 20:07:46;;;;;;;3.05;1.33;;;18.30;99.90;;;;;;10080615;29;20432;-79
2023/05/31 20:13:12;;;;;;;1.98;0.98;;;18.20;99.90;;;;;;10042692;29;20283;-80
2023/05/31 20:18:33;;;;;;;4.30;1.90;;;18.10;99.90;;;;;;10032091;29;20221;-80
2023/05/31 20:23:55;;;;;;;3.78;1.10;;;18.10;99.90;;;;;;10028036;29;20544;-80
2023/05/31 20:29:16;;;;;;;4.88;1.35;;;17.90;99.90;;;;;;10042345;29;20199;-79
2023/05/31 20:34:38;;;;;;;2.15;1.38;;;17.80;99.90;;;;;;10040666;29;20215;-80
2023/05/31 20:39:59;;;;;;;4.45;1.33;;;17.60;99.90;;;;;;10038576;29;20226;-79
2023/05/31 20:45:22;;;;;;;3.00;1.40;;;17.50;99.90;;;;;;10032728;29;20464;-80
2023/05/31 20:50:45;;;;;;;4.82;1.75;;;17.40;99.90;;;;;;10041270;29;20196;-80
2023/05/31 20:56:07;;;;;;;4.38;1.08;;;17.30;99.90;;;;;;10058167;29;20437;-81
2023/05/31 21:01:28;;;;;;;4.43;1.40;;;17.20;99.90;;;;;;10079154;29;20230;-80
2023/05/31 21:06:49;;;;;;;2.72;1.30;;;17.10;99.90;;;;;;10061630;29;20215;-79
2023/05/31 21:12:11;;;;;;;5.53;1.42;;;17.00;99.90;;;;;;10040631;29;20204;-80
2023/05/31 21:17:32;;;;;;;3.53;1.33;;;16.90;99.90;;;;;;10027367;29;20214;-80
2023/05/31 21:22:53;;;;;;;4.00;1.80;;;16.90;99.90;;;;;;10040109;29;20414;-80
2023/05/31 21:28:16;;;;;;;4.65;1.85;;;16.80;99.90;;;;;;10041085;29;20214;-80
2023/05/31 21:33:38;;;;;;;3.67;1.70;;;16.70;99.90;;;;;;10073509;29;20205;-80
2023/05/31 21:39:00;;;;;;;3.60;1.70;;;16.60;99.90;;;;;;10052260;29;20425;-79
2023/05/31 21:44:21;;;;;;;9.65;1.90;;;16.60;99.90;;;;;;10059281;29;20264;-79
2023/05/31 21:49:42;;;;;;;2.70;1.85;;;16.60;99.90;;;;;;10080273;29;20251;-79
2023/05/31 21:55:05;;;;;;;4.53;1.55;;;16.50;99.90;;;;;;10073922;29;20226;-79
2023/05/31 22:00:26;;;;;;;3.47;1.70;;;16.40;99.90;;;;;;10048890;29;20236;-79
2023/05/31 22:05:47;;;;;;;2.67;1.48;;;16.40;99.90;;;;;;10021331;29;20211;-79
2023/05/31 22:11:09;;;;;;;3.00;1.75;;;16.40;99.90;;;;;;10033187;29;20214;-80
2023/05/31 22:16:31;;;;;;;4.53;2.00;;;16.30;99.90;;;;;;10047408;29;20206;-79
2023/05/31 22:21:55;;;;;;;3.42;2.03;;;16.20;99.90;;;;;;10032789;29;20308;-80
2023/05/31 22:27:17;;;;;;;3.75;1.63;;;16.20;99.90;;;;;;10046428;29;20210;-79
2023/05/31 22:32:39;;;;;;;2.88;1.67;;;16.10;99.90;;;;;;10035051;29;20220;-79
2023/05/31 22:38:00;;;;;;;3.50;1.67;;;16.10;99.90;;;;;;10046113;29;20198;-80
2023/05/31 22:43:22;;;;;;;5.30;1.73;;;16.00;99.90;;;;;;10052529;29;20594;-80
2023/05/31 22:48:43;;;;;;;5.40;1.95;;;16.00;1.00;;;;;;10059357;29;20201;-79
2023/05/31 22:54:04;;;;;;;2.75;1.60;;;15.90;1.00;;;;;;10061452;29;20250;-79
2023/05/31 22:59:26;;;;;;;3.30;1.73;;;15.80;1.00;;;;;;10081877;29;20272;-79
2023/05/31 23:04:48;;;;;;;3.33;1.80;;;15.80;1.00;;;;;;10081673;29;20237;-79
2023/05/31 23:10:13;;;;;;;5.18;1.83;;;15.70;1.00;;;;;;10081429;29;20201;-79
2023/05/31 23:15:38;;;;;;;7.18;2.20;;;15.70;1.00;;;;;;10070024;29;20201;-80
2023/05/31 23:20:59;;;;;;;5.03;2.30;;;15.60;12.40;;;;;;10067896;29;20306;-79
2023/05/31 23:26:22;;;;;;;5.85;1.83;;;15.60;60.60;;;;;;10082779;29;20228;-79
2023/05/31 23:31:43;;;;;;;3.25;1.85;;;15.50;99.90;;;;;;10049644;29;20293;-79
2023/05/31 23:37:05;;;;;;;7.20;2.60;;;15.40;99.90;;;;;;10030571;29;20201;-80
2023/05/31 23:42:27;;;;;;;5.35;1.98;;;15.30;99.90;;;;;;10051394;29;20232;-79
2023/05/31 23:47:47;;;;;;;2.95;1.83;;;15.20;99.90;;;;;;10045639;29;20216;-78
2023/05/31 23:53:10;;;;;;;6.53;2.42;;;15.20;1.00;;;;;;10068419;29;20242;-79
2023/05/31 23:58:32;;;;;;;4.72;2.60;;;15.10;1.00;;;;;;10075676;29;20202;-80
